sensor_id;sensor_type;location;lat;lon;timestamp;pressure;altitude;pressure_sealevel;temperature;humidity
57668;BME280;43499;52.366;12.912;2024-01-25T00:00:02;101296.25;;;9.61;67.20
57668;BME280;43499;52.366;12.912;2024-01-25T00:01:06;101318.59;;;9.75;66.74
57668;BME280;43499;52.366;12.912;2024-01-25T00:02:06;101319.28;;;9.63;66.52
57668;BME280;43499;52.366;12.912;2024-01-25T00:03:07;101320.97;;;9.63;67.03
57668;BME280;43499;52.366;12.912;2024-01-25T00:04:08;101316.69;;;9.54;67.04
57668;BME280;43499;52.366;12.912;2024-01-25T00:05:09;101317.16;;;9.50;67.07
57668;BME280;43499;52.366;12.912;2024-01-25T00:06:10;101325.09;;;9.69;67.04
57668;BME280;43499;52.366;12.912;2024-01-25T00:07:11;101312.19;;;9.62;66.63
57668;BME280;43499;52.366;12.912;2024-01-25T00:08:12;101312.75;;;9.68;67.04
57668;BME280;43499;52.366;12.912;2024-01-25T00:09:13;101305.03;;;9.70;67.09
57668;BME280;43499;52.366;12.912;2024-01-25T00:10:15;101300.91;;;9.63;66.96
57668;BME280;43499;52.366;12.912;2024-01-25T00:11:16;101301.59;;;9.52;66.77
57668;BME280;43499;52.366;12.912;2024-01-25T00:12:17;101316.56;;;9.53;67.08
57668;BME280;43499;52.366;12.912;2024-01-25T00:13:18;101307.75;;;9.52;67.23
57668;BME280;43499;52.366;12.912;2024-01-25T00:14:19;101314.63;;;9.61;66.93
57668;BME280;43499;52.366;12.912;2024-01-25T00:15:20;101323.41;;;9.70;66.71
57668;BME280;43499;52.366;12.912;2024-01-25T00:16:21;101323.75;;;9.64;66.60
57668;BME280;43499;52.366;12.912;2024-01-25T00:17:21;101333.91;;;9.70;66.92
57668;BME280;43499;52.366;12.912;2024-01-25T00:18:22;101324.63;;;9.73;66.28
57668;BME280;43499;52.366;12.912;2024-01-25T00:19:23;101338.47;;;9.81;66.32
57668;BME280;43499;52.366;12.912;2024-01-25T00:20:24;101316.34;;;9.60;66.79
57668;BME280;43499;52.366;12.912;2024-01-25T00:21:25;101337.31;;;9.69;66.45
57668;BME280;43499;52.366;12.912;2024-01-25T00:22:26;101332.97;;;9.69;66.74
57668;BME280;43499;52.366;12.912;2024-01-25T00:23:26;101323.84;;;9.75;66.32
57668;BME280;43499;52.366;12.912;2024-01-25T00:24:28;101333.91;;;9.70;66.29
57668;BME280;43499;52.366;12.912;2024-01-25T00:25:29;101326.16;;;9.71;66.24
57668;BME280;43499;52.366;12.912;2024-01-25T00:26:30;101324.41;;;9.81;65.71
57668;BME280;43499;52.366;12.912;2024-01-25T00:27:30;101337.25;;;9.78;65.78
57668;BME280;43499;52.366;12.912;2024-01-25T00:28:31;101338.47;;;9.81;65.45
57668;BME280;43499;52.366;12.912;2024-01-25T00:29:34;101334.84;;;9.90;65.40
57668;BME280;43499;52.366;12.912;2024-01-25T00:30:35;101331.31;;;9.89;65.83
57668;BME280;43499;52.366;12.912;2024-01-25T00:31:37;101323.41;;;9.70;66.34
57668;BME280;43499;52.366;12.912;2024-01-25T00:32:38;101328.41;;;9.58;66.87
57668;BME280;43499;52.366;12.912;2024-01-25T00:33:39;101342.63;;;9.79;65.90
57668;BME280;43499;52.366;12.912;2024-01-25T00:34:40;101335.13;;;9.73;66.05
57668;BME280;43499;52.366;12.912;2024-01-25T00:35:40;101337.09;;;9.76;66.18
57668;BME280;43499;52.366;12.912;2024-01-25T00:36:41;101323.31;;;9.79;66.31
57668;BME280;43499;52.366;12.912;2024-01-25T00:37:42;101338.88;;;9.86;65.69
57668;BME280;43499;52.366;12.912;2024-01-25T00:38:43;101336.63;;;9.80;65.44
57668;BME280;43499;52.366;12.912;2024-01-25T00:39:44;101336.56;;;9.89;65.54
57668;BME280;43499;52.366;12.912;2024-01-25T00:40:45;101335.69;;;9.99;65.27
57668;BME280;43499;52.366;12.912;2024-01-25T00:41:46;101341.59;;;9.96;65.23
57668;BME280;43499;52.366;12.912;2024-01-25T00:42:51;101331.31;;;9.89;65.68
57668;BME280;43499;52.366;12.912;2024-01-25T00:43:54;101334.13;;;9.82;65.73
57668;BME280;43499;52.366;12.912;2024-01-25T00:44:56;101341.44;;;9.76;65.94
57668;BME280;43499;52.366;12.912;2024-01-25T00:45:56;101342.16;;;9.83;65.18
57668;BME280;43499;52.366;12.912;2024-01-25T00:46:57;101339.19;;;9.89;65.04
57668;BME280;43499;52.366;12.912;2024-01-25T00:47:58;101342.72;;;9.90;65.70
57668;BME280;43499;52.366;12.912;2024-01-25T00:48:59;101347.06;;;9.89;65.18
57668;BME280;43499;52.366;12.912;2024-01-25T00:50:00;101342.50;;;9.78;65.84
57668;BME280;43499;52.366;12.912;2024-01-25T00:51:02;101348.81;;;9.80;65.07
57668;BME280;43499;52.366;12.912;2024-01-25T00:52:06;101345.13;;;9.78;65.56
57668;BME280;43499;52.366;12.912;2024-01-25T00:53:07;101342.63;;;9.79;65.74
57668;BME280;43499;52.366;12.912;2024-01-25T00:54:08;101332.09;;;9.60;65.64
57668;BME280;43499;52.366;12.912;2024-01-25T00:55:09;101342.03;;;9.73;65.57
57668;BME280;43499;52.366;12.912;2024-01-25T00:56:10;101351.34;;;9.69;65.86
57668;BME280;43499;52.366;12.912;2024-01-25T00:57:11;101346.91;;;9.87;65.26
57668;BME280;43499;52.366;12.912;2024-01-25T00:58:12;101341.28;;;9.74;65.61
57668;BME280;43499;52.366;12.912;2024-01-25T00:59:13;101328.06;;;9.64;65.92
57668;BME280;43499;52.366;12.912;2024-01-25T01:00:14;101343.84;;;9.55;65.89
57668;BME280;43499;52.366;12.912;2024-01-25T01:01:15;101338.66;;;9.74;66.07
57668;BME280;43499;52.366;12.912;2024-01-25T01:02:17;101351.72;;;9.83;65.77
57668;BME280;43499;52.366;12.912;2024-01-25T01:03:18;101350.25;;;9.67;65.56
57668;BME280;43499;52.366;12.912;2024-01-25T01:04:19;101343.47;;;9.69;65.84
57668;BME280;43499;52.366;12.912;2024-01-25T01:05:21;101344.66;;;9.73;65.53
57668;BME280;43499;52.366;12.912;2024-01-25T01:06:22;101353.91;;;9.78;65.18
57668;BME280;43499;52.366;12.912;2024-01-25T01:07:23;101342.03;;;9.73;65.39
57668;BME280;43499;52.366;12.912;2024-01-25T01:08:24;101334.84;;;9.43;66.37
57668;BME280;43499;52.366;12.912;2024-01-25T01:09:25;101341.97;;;9.63;66.02
57668;BME280;43499;52.366;12.912;2024-01-25T01:10:26;101345.34;;;9.62;65.92
57668;BME280;43499;52.366;12.912;2024-01-25T01:11:27;101352.97;;;9.59;66.31
57668;BME280;43499;52.366;12.912;2024-01-25T01:12:28;101358.41;;;9.79;65.88
57668;BME280;43499;52.366;12.912;2024-01-25T01:13:29;101345.31;;;9.70;65.78
57668;BME280;43499;52.366;12.912;2024-01-25T01:14:30;101365.41;;;9.70;65.74
57668;BME280;43499;52.366;12.912;2024-01-25T01:15:30;101355.63;;;9.78;65.82
57668;BME280;43499;52.366;12.912;2024-01-25T01:16:31;101358.31;;;9.69;65.57
57668;BME280;43499;52.366;12.912;2024-01-25T01:17:34;101361.84;;;9.69;65.78
57668;BME280;43499;52.366;12.912;2024-01-25T01:18:34;101372.97;;;9.67;65.80
57668;BME280;43499;52.366;12.912;2024-01-25T01:19:35;101377.34;;;9.85;65.34
57668;BME280;43499;52.366;12.912;2024-01-25T01:20:36;101360.06;;;9.79;65.30
57668;BME280;43499;52.366;12.912;2024-01-25T01:21:38;101376.28;;;9.83;65.83
57668;BME280;43499;52.366;12.912;2024-01-25T01:22:39;101372.44;;;9.80;65.33
57668;BME280;43499;52.366;12.912;2024-01-25T01:23:40;101376.00;;;9.80;65.56
57668;BME280;43499;52.366;12.912;2024-01-25T01:24:41;101374.97;;;9.69;66.25
57668;BME280;43499;52.366;12.912;2024-01-25T01:25:42;101369.03;;;9.81;65.65
57668;BME280;43499;52.366;12.912;2024-01-25T01:26:43;101383.38;;;9.84;65.81
57668;BME280;43499;52.366;12.912;2024-01-25T01:27:43;101374.34;;;9.72;65.72
57668;BME280;43499;52.366;12.912;2024-01-25T01:28:44;101381.16;;;9.70;65.90
57668;BME280;43499;52.366;12.912;2024-01-25T01:29:45;101377.69;;;9.80;65.34
57668;BME280;43499;52.366;12.912;2024-01-25T01:30:46;101380.66;;;9.74;65.52
57668;BME280;43499;52.366;12.912;2024-01-25T01:31:47;101386.75;;;9.64;66.25
57668;BME280;43499;52.366;12.912;2024-01-25T01:32:48;101384.75;;;9.90;65.55
57668;BME280;43499;52.366;12.912;2024-01-25T01:33:49;101384.59;;;9.60;65.97
57668;BME280;43499;52.366;12.912;2024-01-25T01:34:49;101385.28;;;9.77;65.67
57668;BME280;43499;52.366;12.912;2024-01-25T01:35:50;101363.69;;;9.70;65.51
57668;BME280;43499;52.366;12.912;2024-01-25T01:36:51;101386.06;;;9.76;65.45
57668;BME280;43499;52.366;12.912;2024-01-25T01:37:52;101399.97;;;9.75;65.38
57668;BME280;43499;52.366;12.912;2024-01-25T01:38:54;101400.78;;;9.65;65.12
57668;BME280;43499;52.366;12.912;2024-01-25T01:39:55;101394.06;;;9.77;65.45
57668;BME280;43499;52.366;12.912;2024-01-25T01:40:56;101402.16;;;9.70;65.06
57668;BME280;43499;52.366;12.912;2024-01-25T01:41:57;101408.63;;;9.73;65.28
57668;BME280;43499;52.366;12.912;2024-01-25T01:42:58;101407.53;;;9.71;65.22
57668;BME280;43499;52.366;12.912;2024-01-25T01:43:59;101402.28;;;9.71;65.24
57668;BME280;43499;52.366;12.912;2024-01-25T01:45:00;101402.50;;;9.64;65.41
57668;BME280;43499;52.366;12.912;2024-01-25T01:46:04;101406.16;;;9.66;65.63
57668;BME280;43499;52.366;12.912;2024-01-25T01:47:07;101396.81;;;9.60;65.35
57668;BME280;43499;52.366;12.912;2024-01-25T01:48:08;101396.59;;;9.67;65.48
57668;BME280;43499;52.366;12.912;2024-01-25T01:49:12;101408.78;;;9.66;65.06
57668;BME280;43499;52.366;12.912;2024-01-25T01:50:13;101404.28;;;9.74;64.70
57668;BME280;43499;52.366;12.912;2024-01-25T01:51:14;101390.59;;;9.68;64.85
57668;BME280;43499;52.366;12.912;2024-01-25T01:52:15;101404.28;;;9.74;64.63
57668;BME280;43499;52.366;12.912;2024-01-25T01:53:16;101400.88;;;9.75;65.21
57668;BME280;43499;52.366;12.912;2024-01-25T01:54:18;101407.22;;;9.77;65.25
57668;BME280;43499;52.366;12.912;2024-01-25T01:55:18;101397.72;;;9.60;65.05
57668;BME280;43499;52.366;12.912;2024-01-25T01:56:20;101399.31;;;9.77;65.12
57668;BME280;43499;52.366;12.912;2024-01-25T01:57:21;101398.59;;;9.69;65.09
57668;BME280;43499;52.366;12.912;2024-01-25T01:58:21;101408.63;;;9.73;65.16
57668;BME280;43499;52.366;12.912;2024-01-25T01:59:24;101409.91;;;9.87;64.71
57668;BME280;43499;52.366;12.912;2024-01-25T02:00:26;101404.88;;;9.80;64.65
57668;BME280;43499;52.366;12.912;2024-01-25T02:01:27;101393.78;;;9.74;65.31
57668;BME280;43499;52.366;12.912;2024-01-25T02:02:28;101399.81;;;9.73;65.36
57668;BME280;43499;52.366;12.912;2024-01-25T02:03:29;101400.09;;;9.76;65.25
57668;BME280;43499;52.366;12.912;2024-01-25T02:04:30;101412.50;;;9.68;65.19
57668;BME280;43499;52.366;12.912;2024-01-25T02:05:31;101405.53;;;9.78;64.85
57668;BME280;43499;52.366;12.912;2024-01-25T02:06:32;101401.94;;;9.77;64.53
57668;BME280;43499;52.366;12.912;2024-01-25T02:07:33;101421.28;;;9.78;65.06
57668;BME280;43499;52.366;12.912;2024-01-25T02:08:34;101413.50;;;9.88;64.90
57668;BME280;43499;52.366;12.912;2024-01-25T02:09:35;101408.16;;;9.78;64.70
57668;BME280;43499;52.366;12.912;2024-01-25T02:10:35;101417.38;;;9.83;64.80
57668;BME280;43499;52.366;12.912;2024-01-25T02:11:36;101419.69;;;9.80;64.73
57668;BME280;43499;52.366;12.912;2024-01-25T02:12:37;101424.13;;;9.90;64.87
57668;BME280;43499;52.366;12.912;2024-01-25T02:13:38;101418.22;;;9.92;64.53
57668;BME280;43499;52.366;12.912;2024-01-25T02:14:39;101421.06;;;9.85;64.57
57668;BME280;43499;52.366;12.912;2024-01-25T02:15:40;101430.41;;;9.72;65.21
57668;BME280;43499;52.366;12.912;2024-01-25T02:16:41;101420.69;;;9.63;65.85
57668;BME280;43499;52.366;12.912;2024-01-25T02:17:45;101417.50;;;9.56;65.57
57668;BME280;43499;52.366;12.912;2024-01-25T02:18:47;101419.94;;;9.64;65.68
57668;BME280;43499;52.366;12.912;2024-01-25T02:19:48;101419.75;;;9.71;65.07
57668;BME280;43499;52.366;12.912;2024-01-25T02:20:49;101418.47;;;9.76;65.28
57668;BME280;43499;52.366;12.912;2024-01-25T02:21:50;101421.09;;;9.76;65.25
57668;BME280;43499;52.366;12.912;2024-01-25T02:22:51;101425.09;;;9.81;64.53
57668;BME280;43499;52.366;12.912;2024-01-25T02:23:52;101430.38;;;9.81;64.69
57668;BME280;43499;52.366;12.912;2024-01-25T02:24:53;101415.72;;;9.75;64.51
57668;BME280;43499;52.366;12.912;2024-01-25T02:25:54;101419.75;;;9.71;65.25
57668;BME280;43499;52.366;12.912;2024-01-25T02:26:55;101430.41;;;9.72;65.37
57668;BME280;43499;52.366;12.912;2024-01-25T02:27:56;101425.47;;;9.67;65.00
57668;BME280;43499;52.366;12.912;2024-01-25T02:28:57;101419.16;;;9.65;64.96
57668;BME280;43499;52.366;12.912;2024-01-25T02:29:58;101419.81;;;9.53;65.28
57668;BME280;43499;52.366;12.912;2024-01-25T02:30:59;101429.97;;;9.68;65.22
57668;BME280;43499;52.366;12.912;2024-01-25T02:32:00;101418.19;;;9.73;65.09
57668;BME280;43499;52.366;12.912;2024-01-25T02:33:01;101446.78;;;9.70;64.79
57668;BME280;43499;52.366;12.912;2024-01-25T02:34:02;101426.69;;;9.70;65.06
57668;BME280;43499;52.366;12.912;2024-01-25T02:35:03;101435.03;;;9.66;64.55
57668;BME280;43499;52.366;12.912;2024-01-25T02:36:04;101439.25;;;9.64;64.23
57668;BME280;43499;52.366;12.912;2024-01-25T02:37:05;101426.78;;;9.53;64.80
57668;BME280;43499;52.366;12.912;2024-01-25T02:38:06;101429.63;;;9.73;65.04
57668;BME280;43499;52.366;12.912;2024-01-25T02:39:07;101438.97;;;9.89;64.75
57668;BME280;43499;52.366;12.912;2024-01-25T02:40:08;101434.75;;;9.72;64.72
57668;BME280;43499;52.366;12.912;2024-01-25T02:41:09;101436.09;;;9.77;65.11
57668;BME280;43499;52.366;12.912;2024-01-25T02:42:10;101427.78;;;9.72;65.26
57668;BME280;43499;52.366;12.912;2024-01-25T02:43:11;101434.41;;;9.78;65.16
57668;BME280;43499;52.366;12.912;2024-01-25T02:44:12;101443.06;;;9.77;65.15
57668;BME280;43499;52.366;12.912;2024-01-25T02:45:13;101427.13;;;9.75;64.76
57668;BME280;43499;52.366;12.912;2024-01-25T02:46:14;101425.59;;;9.77;64.92
57668;BME280;43499;52.366;12.912;2024-01-25T02:47:15;101435.22;;;9.68;65.08
57668;BME280;43499;52.366;12.912;2024-01-25T02:48:16;101431.16;;;9.71;64.69
57668;BME280;43499;52.366;12.912;2024-01-25T02:49:17;101429.16;;;9.78;64.90
57668;BME280;43499;52.366;12.912;2024-01-25T02:50:18;101422.53;;;9.72;64.92
57668;BME280;43499;52.366;12.912;2024-01-25T02:51:19;101426.66;;;9.79;64.82
57668;BME280;43499;52.366;12.912;2024-01-25T02:52:20;101424.41;;;9.65;65.19
57668;BME280;43499;52.366;12.912;2024-01-25T02:53:20;101432.75;;;9.61;64.82
57668;BME280;43499;52.366;12.912;2024-01-25T02:54:21;101427.84;;;9.55;65.11
57668;BME280;43499;52.366;12.912;2024-01-25T02:55:22;101424.88;;;9.61;65.42
57668;BME280;43499;52.366;12.912;2024-01-25T02:56:23;101430.44;;;9.64;65.10
57668;BME280;43499;52.366;12.912;2024-01-25T02:57:24;101448.16;;;9.66;65.06
57668;BME280;43499;52.366;12.912;2024-01-25T02:58:25;101445.59;;;9.57;65.45
57668;BME280;43499;52.366;12.912;2024-01-25T02:59:26;101438.13;;;9.71;64.97
57668;BME280;43499;52.366;12.912;2024-01-25T03:00:27;101430.69;;;9.76;64.92
57668;BME280;43499;52.366;12.912;2024-01-25T03:01:28;101424.09;;;9.62;65.12
57668;BME280;43499;52.366;12.912;2024-01-25T03:02:37;101436.00;;;9.58;65.16
57668;BME280;43499;52.366;12.912;2024-01-25T03:03:38;101434.13;;;9.66;65.23
57668;BME280;43499;52.366;12.912;2024-01-25T03:04:39;101438.94;;;9.61;65.01
57668;BME280;43499;52.366;12.912;2024-01-25T03:05:40;101425.72;;;9.51;65.35
57668;BME280;43499;52.366;12.912;2024-01-25T03:06:41;101437.88;;;9.50;65.61
57668;BME280;43499;52.366;12.912;2024-01-25T03:07:42;101439.72;;;9.60;65.52
57668;BME280;43499;52.366;12.912;2024-01-25T03:08:43;101434.16;;;9.57;65.35
57668;BME280;43499;52.366;12.912;2024-01-25T03:09:44;101426.00;;;9.54;65.38
57668;BME280;43499;52.366;12.912;2024-01-25T03:10:46;101434.78;;;9.54;65.84
57668;BME280;43499;52.366;12.912;2024-01-25T03:11:47;101432.38;;;9.47;65.06
57668;BME280;43499;52.366;12.912;2024-01-25T03:12:47;101426.47;;;9.50;65.51
57668;BME280;43499;52.366;12.912;2024-01-25T03:13:48;101436.94;;;9.59;65.58
57668;BME280;43499;52.366;12.912;2024-01-25T03:14:49;101422.41;;;9.62;65.37
57668;BME280;43499;52.366;12.912;2024-01-25T03:15:50;101422.34;;;9.43;65.46
57668;BME280;43499;52.366;12.912;2024-01-25T03:16:51;101432.41;;;9.38;65.55
57668;BME280;43499;52.366;12.912;2024-01-25T03:17:52;101430.66;;;9.48;65.26
57668;BME280;43499;52.366;12.912;2024-01-25T03:18:53;101430.00;;;9.59;65.15
57668;BME280;43499;52.366;12.912;2024-01-25T03:19:54;101435.97;;;9.67;64.62
57668;BME280;43499;52.366;12.912;2024-01-25T03:20:55;101433.56;;;9.60;65.05
57668;BME280;43499;52.366;12.912;2024-01-25T03:21:56;101433.69;;;9.61;65.19
57668;BME280;43499;52.366;12.912;2024-01-25T03:22:57;101412.47;;;9.40;65.75
57668;BME280;43499;52.366;12.912;2024-01-25T03:23:58;101429.56;;;9.46;65.62
57668;BME280;43499;52.366;12.912;2024-01-25T03:24:58;101421.44;;;9.34;65.68
57668;BME280;43499;52.366;12.912;2024-01-25T03:26:01;101440.25;;;9.47;65.56
57668;BME280;43499;52.366;12.912;2024-01-25T03:27:02;101423.84;;;9.50;65.42
57668;BME280;43499;52.366;12.912;2024-01-25T03:28:03;101426.16;;;9.55;65.27
57668;BME280;43499;52.366;12.912;2024-01-25T03:29:07;101424.06;;;9.43;65.78
57668;BME280;43499;52.366;12.912;2024-01-25T03:30:08;101434.66;;;9.53;65.30
57668;BME280;43499;52.366;12.912;2024-01-25T03:31:08;101439.59;;;9.50;65.45
57668;BME280;43499;52.366;12.912;2024-01-25T03:32:10;101435.25;;;9.50;65.45
57668;BME280;43499;52.366;12.912;2024-01-25T03:33:10;101449.66;;;9.45;65.34
57668;BME280;43499;52.366;12.912;2024-01-25T03:34:11;101438.72;;;9.40;65.59
57668;BME280;43499;52.366;12.912;2024-01-25T03:35:12;101429.63;;;9.37;65.27
57668;BME280;43499;52.366;12.912;2024-01-25T03:36:13;101430.78;;;9.49;65.50
57668;BME280;43499;52.366;12.912;2024-01-25T03:37:14;101431.44;;;9.47;64.95
57668;BME280;43499;52.366;12.912;2024-01-25T03:38:15;101425.75;;;9.33;65.71
57668;BME280;43499;52.366;12.912;2024-01-25T03:39:16;101425.06;;;9.53;65.41
57668;BME280;43499;52.366;12.912;2024-01-25T03:40:18;101427.00;;;9.37;65.23
57668;BME280;43499;52.366;12.912;2024-01-25T03:41:19;101434.72;;;9.35;65.51
57668;BME280;43499;52.366;12.912;2024-01-25T03:42:20;101431.78;;;9.32;64.72
57668;BME280;43499;52.366;12.912;2024-01-25T03:43:21;101419.91;;;9.36;64.74
57668;BME280;43499;52.366;12.912;2024-01-25T03:44:22;101397.84;;;9.34;64.97
57668;BME280;43499;52.366;12.912;2024-01-25T03:45:22;101410.63;;;9.39;64.82
57668;BME280;43499;52.366;12.912;2024-01-25T03:46:23;101437.50;;;9.37;64.61
57668;BME280;43499;52.366;12.912;2024-01-25T03:47:24;101425.19;;;9.27;64.97
57668;BME280;43499;52.366;12.912;2024-01-25T03:48:25;101439.50;;;9.39;65.11
57668;BME280;43499;52.366;12.912;2024-01-25T03:49:26;101445.84;;;9.33;65.25
57668;BME280;43499;52.366;12.912;2024-01-25T03:50:27;101428.69;;;9.36;65.26
57668;BME280;43499;52.366;12.912;2024-01-25T03:51:28;101445.50;;;9.38;65.27
57668;BME280;43499;52.366;12.912;2024-01-25T03:52:29;101433.94;;;9.27;65.11
57668;BME280;43499;52.366;12.912;2024-01-25T03:53:31;101447.69;;;9.34;64.48
57668;BME280;43499;52.366;12.912;2024-01-25T03:54:31;101433.34;;;9.30;65.01
57668;BME280;43499;52.366;12.912;2024-01-25T03:55:32;101453.84;;;9.34;64.73
57668;BME280;43499;52.366;12.912;2024-01-25T03:56:33;101431.13;;;9.44;64.63
57668;BME280;43499;52.366;12.912;2024-01-25T03:57:34;101457.09;;;9.40;65.06
57668;BME280;43499;52.366;12.912;2024-01-25T03:58:35;101442.75;;;9.37;65.05
57668;BME280;43499;52.366;12.912;2024-01-25T03:59:36;101455.88;;;9.37;65.26
57668;BME280;43499;52.366;12.912;2024-01-25T04:00:36;101445.69;;;9.31;65.04
57668;BME280;43499;52.366;12.912;2024-01-25T04:01:43;101452.31;;;9.36;64.94
57668;BME280;43499;52.366;12.912;2024-01-25T04:02:45;101461.69;;;9.43;65.12
57668;BME280;43499;52.366;12.912;2024-01-25T04:03:45;101444.75;;;9.39;65.03
57668;BME280;43499;52.366;12.912;2024-01-25T04:04:46;101459.25;;;9.36;64.72
57668;BME280;43499;52.366;12.912;2024-01-25T04:05:47;101454.47;;;9.32;64.77
57668;BME280;43499;52.366;12.912;2024-01-25T04:06:48;101427.16;;;9.30;64.73
57668;BME280;43499;52.366;12.912;2024-01-25T04:07:49;101450.78;;;9.21;64.65
57668;BME280;43499;52.366;12.912;2024-01-25T04:08:50;101443.88;;;9.13;64.85
57668;BME280;43499;52.366;12.912;2024-01-25T04:09:51;101449.75;;;9.10;65.24
57668;BME280;43499;52.366;12.912;2024-01-25T04:10:51;101456.22;;;9.22;64.83
57668;BME280;43499;52.366;12.912;2024-01-25T04:11:53;101451.13;;;9.15;65.25
57668;BME280;43499;52.366;12.912;2024-01-25T04:12:53;101445.72;;;9.14;65.29
57668;BME280;43499;52.366;12.912;2024-01-25T04:13:54;101451.94;;;9.05;65.25
57668;BME280;43499;52.366;12.912;2024-01-25T04:14:55;101437.09;;;9.06;65.32
57668;BME280;43499;52.366;12.912;2024-01-25T04:15:56;101459.94;;;9.07;64.86
57668;BME280;43499;52.366;12.912;2024-01-25T04:16:57;101451.16;;;8.89;65.39
57668;BME280;43499;52.366;12.912;2024-01-25T04:17:58;101450.66;;;9.10;65.31
57668;BME280;43499;52.366;12.912;2024-01-25T04:18:59;101420.78;;;9.00;65.25
57668;BME280;43499;52.366;12.912;2024-01-25T04:19:59;101430.78;;;9.04;65.42
57668;BME280;43499;52.366;12.912;2024-01-25T04:21:00;101434.66;;;9.07;65.14
57668;BME280;43499;52.366;12.912;2024-01-25T04:22:01;101449.94;;;9.03;65.31
57668;BME280;43499;52.366;12.912;2024-01-25T04:23:02;101450.84;;;9.03;65.59
57668;BME280;43499;52.366;12.912;2024-01-25T04:24:03;101434.03;;;9.01;65.41
57668;BME280;43499;52.366;12.912;2024-01-25T04:25:04;101435.75;;;8.92;65.31
57668;BME280;43499;52.366;12.912;2024-01-25T04:26:05;101441.44;;;8.88;65.04
57668;BME280;43499;52.366;12.912;2024-01-25T04:27:06;101439.91;;;8.81;65.77
57668;BME280;43499;52.366;12.912;2024-01-25T04:28:07;101438.06;;;8.80;65.94
57668;BME280;43499;52.366;12.912;2024-01-25T04:29:08;101447.47;;;8.87;65.76
57668;BME280;43499;52.366;12.912;2024-01-25T04:30:09;101414.00;;;8.84;65.67
57668;BME280;43499;52.366;12.912;2024-01-25T04:31:10;101421.25;;;8.87;66.13
57668;BME280;43499;52.366;12.912;2024-01-25T04:32:12;101449.47;;;8.72;66.44
57668;BME280;43499;52.366;12.912;2024-01-25T04:33:13;101439.31;;;8.84;65.46
57668;BME280;43499;52.366;12.912;2024-01-25T04:34:14;101425.25;;;8.83;66.04
57668;BME280;43499;52.366;12.912;2024-01-25T04:35:15;101440.69;;;8.80;66.04
57668;BME280;43499;52.366;12.912;2024-01-25T04:36:16;101417.13;;;8.71;66.19
57668;BME280;43499;52.366;12.912;2024-01-25T04:37:17;101433.63;;;8.79;66.29
57668;BME280;43499;52.366;12.912;2024-01-25T04:38:18;101438.22;;;8.73;66.27
57668;BME280;43499;52.366;12.912;2024-01-25T04:39:19;101441.00;;;8.74;66.16
57668;BME280;43499;52.366;12.912;2024-01-25T04:40:20;101432.53;;;8.68;66.72
57668;BME280;43499;52.366;12.912;2024-01-25T04:41:21;101460.72;;;8.71;66.71
57668;BME280;43499;52.366;12.912;2024-01-25T04:42:22;101447.78;;;8.63;66.72
57668;BME280;43499;52.366;12.912;2024-01-25T04:43:22;101452.41;;;8.66;66.36
57668;BME280;43499;52.366;12.912;2024-01-25T04:44:23;101449.47;;;8.72;66.51
57668;BME280;43499;52.366;12.912;2024-01-25T04:45:24;101453.03;;;8.63;66.62
57668;BME280;43499;52.366;12.912;2024-01-25T04:46:25;101462.28;;;8.69;66.57
57668;BME280;43499;52.366;12.912;2024-01-25T04:47:27;101457.06;;;8.60;66.54
57668;BME280;43499;52.366;12.912;2024-01-25T04:48:28;101456.56;;;8.73;66.55
57668;BME280;43499;52.366;12.912;2024-01-25T04:49:29;101463.81;;;8.75;66.01
57668;BME280;43499;52.366;12.912;2024-01-25T04:50:30;101457.97;;;8.69;66.25
57668;BME280;43499;52.366;12.912;2024-01-25T04:51:31;101480.47;;;8.67;66.18
57668;BME280;43499;52.366;12.912;2024-01-25T04:52:32;101486.66;;;8.68;66.21
57668;BME280;43499;52.366;12.912;2024-01-25T04:53:32;101475.84;;;8.56;66.49
57668;BME280;43499;52.366;12.912;2024-01-25T04:54:33;101485.41;;;8.64;66.88
57668;BME280;43499;52.366;12.912;2024-01-25T04:55:34;101485.56;;;8.74;66.31
57668;BME280;43499;52.366;12.912;2024-01-25T04:56:35;101499.47;;;8.73;66.68
57668;BME280;43499;52.366;12.912;2024-01-25T04:57:36;101495.59;;;8.78;66.30
57668;BME280;43499;52.366;12.912;2024-01-25T04:58:37;101503.31;;;8.77;66.91
57668;BME280;43499;52.366;12.912;2024-01-25T04:59:37;101491.41;;;8.72;66.42
57668;BME280;43499;52.366;12.912;2024-01-25T05:00:38;101489.88;;;8.74;66.54
57668;BME280;43499;52.366;12.912;2024-01-25T05:01:40;101487.72;;;8.78;66.32
57668;BME280;43499;52.366;12.912;2024-01-25T05:02:41;101496.66;;;8.80;66.42
57668;BME280;43499;52.366;12.912;2024-01-25T05:03:42;101506.41;;;8.90;66.31
57668;BME280;43499;52.366;12.912;2024-01-25T05:04:43;101503.59;;;8.89;66.24
57668;BME280;43499;52.366;12.912;2024-01-25T05:05:43;101503.91;;;8.92;66.20
57668;BME280;43499;52.366;12.912;2024-01-25T05:06:44;101508.25;;;8.91;66.19
57668;BME280;43499;52.366;12.912;2024-01-25T05:07:45;101511.47;;;8.89;65.94
57668;BME280;43499;52.366;12.912;2024-01-25T05:08:46;101500.53;;;8.93;66.21
57668;BME280;43499;52.366;12.912;2024-01-25T05:09:47;101500.53;;;8.93;65.78
57668;BME280;43499;52.366;12.912;2024-01-25T05:10:48;101501.59;;;8.77;66.57
57668;BME280;43499;52.366;12.912;2024-01-25T05:11:49;101508.56;;;8.77;66.86
57668;BME280;43499;52.366;12.912;2024-01-25T05:12:50;101503.63;;;8.71;66.92
57668;BME280;43499;52.366;12.912;2024-01-25T05:13:51;101489.88;;;8.65;66.75
57668;BME280;43499;52.366;12.912;2024-01-25T05:14:51;101504.97;;;8.76;66.71
57668;BME280;43499;52.366;12.912;2024-01-25T05:15:52;101503.91;;;8.74;66.34
57668;BME280;43499;52.366;12.912;2024-01-25T05:16:53;101509.91;;;8.56;67.33
57668;BME280;43499;52.366;12.912;2024-01-25T05:17:54;101509.59;;;8.61;67.50
57668;BME280;43499;52.366;12.912;2024-01-25T05:18:55;101525.66;;;8.64;66.96